Terminal Aerodrome Forecast
Issued by NWS

Home | Current Version | Previous Version | Text Only | Print | Product List | Glossary On
Versions: 1 2 3 4 5 6 7 8 9 10 11 12 13 14 15 16 17
680
FTUS46 KMFR 292240 AAB
TAFOTH
TAF AMD
KOTH 292240Z 2923/3018 22010G20KT 4SM RA BR OVC009
      TEMPO 2923/3001 2SM BR
     FM300100 24012G20KT P6SM -SHRA BKN007 OVC010
     FM300300 28010KT P6SM -SHRA OVC015
     FM300600 30009KT P6SM -SHRA BKN025 OVC040=

USA.gov is the U.S. government's official web portal to all federal, state and local government web resources and services.